sensor_id;sensor_type;location;lat;lon;timestamp;temperature;humidity
25024;DHT22;13033;50.936;5.334;2024-01-15T00:01:54;2.50;99.90
25024;DHT22;13033;50.936;5.334;2024-01-15T00:04:20;2.50;99.90
25024;DHT22;13033;50.936;5.334;2024-01-15T00:06:45;2.60;99.90
25024;DHT22;13033;50.936;5.334;2024-01-15T00:09:11;2.60;99.90
25024;DHT22;13033;50.936;5.334;2024-01-15T00:11:37;2.70;99.90
25024;DHT22;13033;50.936;5.334;2024-01-15T00:14:02;2.60;99.90
25024;DHT22;13033;50.936;5.334;2024-01-15T00:16:28;2.50;99.90
25024;DHT22;13033;50.936;5.334;2024-01-15T00:18:54;2.50;99.90
25024;DHT22;13033;50.936;5.334;2024-01-15T00:21:20;2.50;99.90
25024;DHT22;13033;50.936;5.334;2024-01-15T00:23:45;2.50;99.90
25024;DHT22;13033;50.936;5.334;2024-01-15T00:26:11;2.50;99.90
25024;DHT22;13033;50.936;5.334;2024-01-15T00:28:37;2.50;99.90
25024;DHT22;13033;50.936;5.334;2024-01-15T00:31:06;2.50;99.90
25024;DHT22;13033;50.936;5.334;2024-01-15T00:33:32;2.50;99.90
25024;DHT22;13033;50.936;5.334;2024-01-15T00:35:58;2.40;99.90
25024;DHT22;13033;50.936;5.334;2024-01-15T00:38:24;2.40;99.90
25024;DHT22;13033;50.936;5.334;2024-01-15T00:40:50;2.30;99.90
25024;DHT22;13033;50.936;5.334;2024-01-15T00:43:16;2.20;99.90
25024;DHT22;13033;50.936;5.334;2024-01-15T00:45:43;2.20;99.90
25024;DHT22;13033;50.936;5.334;2024-01-15T00:48:09;2.10;99.90
25024;DHT22;13033;50.936;5.334;2024-01-15T00:50:35;2.00;99.90
25024;DHT22;13033;50.936;5.334;2024-01-15T00:53:01;2.10;99.90
25024;DHT22;13033;50.936;5.334;2024-01-15T00:55:28;2.00;99.90
25024;DHT22;13033;50.936;5.334;2024-01-15T00:57:54;2.00;99.90
25024;DHT22;13033;50.936;5.334;2024-01-15T01:00:19;1.90;99.90
25024;DHT22;13033;50.936;5.334;2024-01-15T01:02:45;1.90;99.90
25024;DHT22;13033;50.936;5.334;2024-01-15T01:05:11;2.00;99.90
25024;DHT22;13033;50.936;5.334;2024-01-15T01:07:36;2.00;99.90
25024;DHT22;13033;50.936;5.334;2024-01-15T01:10:02;2.00;99.90
25024;DHT22;13033;50.936;5.334;2024-01-15T01:12:28;1.90;99.90
25024;DHT22;13033;50.936;5.334;2024-01-15T01:14:55;1.90;99.90
25024;DHT22;13033;50.936;5.334;2024-01-15T01:17:21;1.90;99.90
25024;DHT22;13033;50.936;5.334;2024-01-15T01:19:46;1.90;99.90
25024;DHT22;13033;50.936;5.334;2024-01-15T01:22:12;1.90;99.90
25024;DHT22;13033;50.936;5.334;2024-01-15T01:24:38;1.90;99.90
25024;DHT22;13033;50.936;5.334;2024-01-15T01:27:03;2.00;99.90
25024;DHT22;13033;50.936;5.334;2024-01-15T01:29:29;2.10;99.90
25024;DHT22;13033;50.936;5.334;2024-01-15T01:31:55;2.00;99.90
25024;DHT22;13033;50.936;5.334;2024-01-15T01:34:22;2.10;99.90
25024;DHT22;13033;50.936;5.334;2024-01-15T01:36:48;2.10;99.90
25024;DHT22;13033;50.936;5.334;2024-01-15T01:39:13;2.20;99.90
25024;DHT22;13033;50.936;5.334;2024-01-15T01:41:39;2.20;99.90
25024;DHT22;13033;50.936;5.334;2024-01-15T01:44:05;2.20;99.90
25024;DHT22;13033;50.936;5.334;2024-01-15T01:46:32;2.20;99.90
25024;DHT22;13033;50.936;5.334;2024-01-15T01:48:59;2.20;99.90
25024;DHT22;13033;50.936;5.334;2024-01-15T01:51:31;2.30;99.90
25024;DHT22;13033;50.936;5.334;2024-01-15T01:53:57;2.40;99.90
25024;DHT22;13033;50.936;5.334;2024-01-15T01:56:24;2.50;99.90
25024;DHT22;13033;50.936;5.334;2024-01-15T01:58:49;2.50;99.90
25024;DHT22;13033;50.936;5.334;2024-01-15T02:01:15;2.40;99.90
25024;DHT22;13033;50.936;5.334;2024-01-15T02:03:42;2.40;99.90
25024;DHT22;13033;50.936;5.334;2024-01-15T02:06:08;2.30;99.90
25024;DHT22;13033;50.936;5.334;2024-01-15T02:08:34;2.40;99.90
25024;DHT22;13033;50.936;5.334;2024-01-15T02:11:00;2.40;99.90
25024;DHT22;13033;50.936;5.334;2024-01-15T02:13:26;2.40;99.90
25024;DHT22;13033;50.936;5.334;2024-01-15T02:15:51;2.30;99.90
25024;DHT22;13033;50.936;5.334;2024-01-15T02:18:17;2.40;99.90
25024;DHT22;13033;50.936;5.334;2024-01-15T02:20:43;2.30;99.90
25024;DHT22;13033;50.936;5.334;2024-01-15T02:23:14;2.40;99.90
25024;DHT22;13033;50.936;5.334;2024-01-15T02:25:41;2.40;99.90
25024;DHT22;13033;50.936;5.334;2024-01-15T02:28:11;2.50;99.90
25024;DHT22;13033;50.936;5.334;2024-01-15T02:30:38;2.60;99.90
25024;DHT22;13033;50.936;5.334;2024-01-15T02:33:05;2.70;99.90
25024;DHT22;13033;50.936;5.334;2024-01-15T02:35:31;2.80;99.90
25024;DHT22;13033;50.936;5.334;2024-01-15T02:37:57;2.70;99.90
25024;DHT22;13033;50.936;5.334;2024-01-15T02:40:23;2.70;99.90
25024;DHT22;13033;50.936;5.334;2024-01-15T02:42:48;2.70;99.90
25024;DHT22;13033;50.936;5.334;2024-01-15T02:45:14;2.70;99.90
25024;DHT22;13033;50.936;5.334;2024-01-15T02:47:40;2.70;99.90
25024;DHT22;13033;50.936;5.334;2024-01-15T02:50:06;2.60;99.90
25024;DHT22;13033;50.936;5.334;2024-01-15T02:52:32;2.50;99.90
25024;DHT22;13033;50.936;5.334;2024-01-15T02:54:57;2.40;99.90
25024;DHT22;13033;50.936;5.334;2024-01-15T02:57:23;2.30;99.90
25024;DHT22;13033;50.936;5.334;2024-01-15T02:59:49;2.40;99.90
25024;DHT22;13033;50.936;5.334;2024-01-15T03:02:14;2.50;99.90
25024;DHT22;13033;50.936;5.334;2024-01-15T03:04:44;2.50;99.90
25024;DHT22;13033;50.936;5.334;2024-01-15T03:07:10;2.60;99.90
25024;DHT22;13033;50.936;5.334;2024-01-15T03:09:35;2.50;99.90
25024;DHT22;13033;50.936;5.334;2024-01-15T03:12:01;2.50;99.90
25024;DHT22;13033;50.936;5.334;2024-01-15T03:14:27;2.60;99.90
25024;DHT22;13033;50.936;5.334;2024-01-15T03:16:53;2.60;99.90
25024;DHT22;13033;50.936;5.334;2024-01-15T03:19:19;2.70;99.90
25024;DHT22;13033;50.936;5.334;2024-01-15T03:21:44;2.70;99.90
25024;DHT22;13033;50.936;5.334;2024-01-15T03:24:10;2.70;99.90
25024;DHT22;13033;50.936;5.334;2024-01-15T03:26:36;2.60;99.90
25024;DHT22;13033;50.936;5.334;2024-01-15T03:29:02;2.60;99.90
25024;DHT22;13033;50.936;5.334;2024-01-15T03:31:27;2.60;99.90
25024;DHT22;13033;50.936;5.334;2024-01-15T03:33:53;2.60;99.90
25024;DHT22;13033;50.936;5.334;2024-01-15T03:36:19;2.60;99.90
25024;DHT22;13033;50.936;5.334;2024-01-15T03:38:44;2.60;99.90
25024;DHT22;13033;50.936;5.334;2024-01-15T03:41:10;2.60;99.90
25024;DHT22;13033;50.936;5.334;2024-01-15T03:43:36;2.80;99.90
25024;DHT22;13033;50.936;5.334;2024-01-15T03:46:01;2.70;99.90
25024;DHT22;13033;50.936;5.334;2024-01-15T03:48:27;2.70;99.90
25024;DHT22;13033;50.936;5.334;2024-01-15T03:50:53;2.70;99.90
25024;DHT22;13033;50.936;5.334;2024-01-15T03:53:19;2.70;99.90
25024;DHT22;13033;50.936;5.334;2024-01-15T03:55:45;2.70;99.90
25024;DHT22;13033;50.936;5.334;2024-01-15T03:58:10;2.70;99.90
25024;DHT22;13033;50.936;5.334;2024-01-15T04:00:36;2.70;99.90
25024;DHT22;13033;50.936;5.334;2024-01-15T04:03:02;2.60;99.90
25024;DHT22;13033;50.936;5.334;2024-01-15T04:05:28;2.60;99.90
25024;DHT22;13033;50.936;5.334;2024-01-15T04:07:53;2.70;99.90
25024;DHT22;13033;50.936;5.334;2024-01-15T04:10:19;2.70;99.90
25024;DHT22;13033;50.936;5.334;2024-01-15T04:12:45;2.60;99.90
25024;DHT22;13033;50.936;5.334;2024-01-15T04:15:13;2.60;99.90
25024;DHT22;13033;50.936;5.334;2024-01-15T04:17:39;2.70;99.90
25024;DHT22;13033;50.936;5.334;2024-01-15T04:20:05;2.60;99.90
25024;DHT22;13033;50.936;5.334;2024-01-15T04:22:32;2.50;99.90
25024;DHT22;13033;50.936;5.334;2024-01-15T04:24:57;2.60;99.90
25024;DHT22;13033;50.936;5.334;2024-01-15T04:27:23;2.60;99.90
25024;DHT22;13033;50.936;5.334;2024-01-15T04:29:49;2.50;99.90
25024;DHT22;13033;50.936;5.334;2024-01-15T04:32:14;2.50;99.90
25024;DHT22;13033;50.936;5.334;2024-01-15T04:34:40;2.50;99.90
25024;DHT22;13033;50.936;5.334;2024-01-15T04:37:05;2.60;99.90
25024;DHT22;13033;50.936;5.334;2024-01-15T04:39:31;2.50;99.90
25024;DHT22;13033;50.936;5.334;2024-01-15T04:41:57;2.60;99.90
25024;DHT22;13033;50.936;5.334;2024-01-15T04:44:22;2.60;99.90
25024;DHT22;13033;50.936;5.334;2024-01-15T04:46:48;2.80;99.90
25024;DHT22;13033;50.936;5.334;2024-01-15T04:49:14;2.80;99.90
25024;DHT22;13033;50.936;5.334;2024-01-15T04:51:39;2.80;99.90
25024;DHT22;13033;50.936;5.334;2024-01-15T04:54:05;2.80;99.90
25024;DHT22;13033;50.936;5.334;2024-01-15T04:56:31;2.70;99.90
25024;DHT22;13033;50.936;5.334;2024-01-15T04:58:56;2.90;99.90
25024;DHT22;13033;50.936;5.334;2024-01-15T05:01:22;2.90;99.90
25024;DHT22;13033;50.936;5.334;2024-01-15T05:03:48;2.80;99.90
25024;DHT22;13033;50.936;5.334;2024-01-15T05:06:14;2.70;99.90
25024;DHT22;13033;50.936;5.334;2024-01-15T05:08:40;2.70;99.90
25024;DHT22;13033;50.936;5.334;2024-01-15T05:11:06;2.70;99.90
25024;DHT22;13033;50.936;5.334;2024-01-15T05:13:32;2.60;99.90
25024;DHT22;13033;50.936;5.334;2024-01-15T05:15:58;2.70;99.90
25024;DHT22;13033;50.936;5.334;2024-01-15T05:18:24;2.80;99.90
25024;DHT22;13033;50.936;5.334;2024-01-15T05:20:49;2.90;99.90
25024;DHT22;13033;50.936;5.334;2024-01-15T05:23:15;2.80;99.90
25024;DHT22;13033;50.936;5.334;2024-01-15T05:25:41;2.80;99.90
25024;DHT22;13033;50.936;5.334;2024-01-15T05:28:07;2.60;99.90
25024;DHT22;13033;50.936;5.334;2024-01-15T05:30:33;2.50;99.90
25024;DHT22;13033;50.936;5.334;2024-01-15T05:32:59;2.60;99.90
25024;DHT22;13033;50.936;5.334;2024-01-15T05:35:25;2.60;99.90
25024;DHT22;13033;50.936;5.334;2024-01-15T05:37:51;2.50;99.90
25024;DHT22;13033;50.936;5.334;2024-01-15T05:40:17;2.40;99.90
25024;DHT22;13033;50.936;5.334;2024-01-15T05:42:42;2.50;99.90
25024;DHT22;13033;50.936;5.334;2024-01-15T05:45:08;2.50;99.90
25024;DHT22;13033;50.936;5.334;2024-01-15T05:47:34;2.50;99.90
25024;DHT22;13033;50.936;5.334;2024-01-15T05:50:01;2.60;99.90
25024;DHT22;13033;50.936;5.334;2024-01-15T05:52:26;2.50;99.90
25024;DHT22;13033;50.936;5.334;2024-01-15T05:54:52;2.50;99.90
25024;DHT22;13033;50.936;5.334;2024-01-15T05:57:18;2.40;99.90
25024;DHT22;13033;50.936;5.334;2024-01-15T05:59:44;2.40;99.90
25024;DHT22;13033;50.936;5.334;2024-01-15T06:02:10;2.60;99.90
25024;DHT22;13033;50.936;5.334;2024-01-15T06:04:36;2.50;99.90
25024;DHT22;13033;50.936;5.334;2024-01-15T06:07:02;2.30;99.90
25024;DHT22;13033;50.936;5.334;2024-01-15T06:09:28;2.30;99.90
25024;DHT22;13033;50.936;5.334;2024-01-15T06:11:54;2.30;99.90
25024;DHT22;13033;50.936;5.334;2024-01-15T06:14:20;2.30;99.90
25024;DHT22;13033;50.936;5.334;2024-01-15T06:16:46;2.30;99.90
25024;DHT22;13033;50.936;5.334;2024-01-15T06:19:11;2.20;99.90
25024;DHT22;13033;50.936;5.334;2024-01-15T06:21:37;2.20;99.90
25024;DHT22;13033;50.936;5.334;2024-01-15T06:24:03;2.10;99.90
25024;DHT22;13033;50.936;5.334;2024-01-15T06:26:30;2.00;99.90
25024;DHT22;13033;50.936;5.334;2024-01-15T06:28:55;2.00;99.90
25024;DHT22;13033;50.936;5.334;2024-01-15T06:31:21;2.00;99.90
25024;DHT22;13033;50.936;5.334;2024-01-15T06:33:47;2.00;99.90
25024;DHT22;13033;50.936;5.334;2024-01-15T06:36:13;1.90;99.90
25024;DHT22;13033;50.936;5.334;2024-01-15T06:38:39;1.90;99.90
25024;DHT22;13033;50.936;5.334;2024-01-15T06:41:05;2.00;99.90
25024;DHT22;13033;50.936;5.334;2024-01-15T06:43:31;2.00;99.90
25024;DHT22;13033;50.936;5.334;2024-01-15T06:45:56;2.10;99.90
25024;DHT22;13033;50.936;5.334;2024-01-15T06:48:22;2.00;99.90
25024;DHT22;13033;50.936;5.334;2024-01-15T06:50:48;2.00;99.90
25024;DHT22;13033;50.936;5.334;2024-01-15T06:53:14;2.10;99.90
25024;DHT22;13033;50.936;5.334;2024-01-15T06:55:39;2.10;99.90
25024;DHT22;13033;50.936;5.334;2024-01-15T06:58:05;2.20;99.90
25024;DHT22;13033;50.936;5.334;2024-01-15T07:00:31;2.00;99.90
25024;DHT22;13033;50.936;5.334;2024-01-15T07:02:56;2.00;99.90
25024;DHT22;13033;50.936;5.334;2024-01-15T07:05:23;2.10;99.90
25024;DHT22;13033;50.936;5.334;2024-01-15T07:07:49;2.10;99.90
25024;DHT22;13033;50.936;5.334;2024-01-15T07:10:14;2.00;99.90
25024;DHT22;13033;50.936;5.334;2024-01-15T07:12:43;2.00;99.90
25024;DHT22;13033;50.936;5.334;2024-01-15T07:15:09;2.10;99.90
25024;DHT22;13033;50.936;5.334;2024-01-15T07:17:36;2.20;99.90
25024;DHT22;13033;50.936;5.334;2024-01-15T07:20:08;2.20;99.90
25024;DHT22;13033;50.936;5.334;2024-01-15T07:22:37;2.30;99.90
25024;DHT22;13033;50.936;5.334;2024-01-15T07:25:04;2.30;99.90
25024;DHT22;13033;50.936;5.334;2024-01-15T07:27:32;2.20;99.90
25024;DHT22;13033;50.936;5.334;2024-01-15T07:29:58;2.30;99.90
25024;DHT22;13033;50.936;5.334;2024-01-15T07:32:24;2.30;99.90
25024;DHT22;13033;50.936;5.334;2024-01-15T07:34:49;2.30;99.90
25024;DHT22;13033;50.936;5.334;2024-01-15T07:37:15;2.40;99.90
25024;DHT22;13033;50.936;5.334;2024-01-15T07:39:41;2.30;99.90
25024;DHT22;13033;50.936;5.334;2024-01-15T07:42:06;2.40;99.90
25024;DHT22;13033;50.936;5.334;2024-01-15T07:44:33;2.30;99.90
25024;DHT22;13033;50.936;5.334;2024-01-15T07:46:58;2.30;99.90
25024;DHT22;13033;50.936;5.334;2024-01-15T07:49:24;2.50;99.90
25024;DHT22;13033;50.936;5.334;2024-01-15T07:51:50;2.60;99.90
25024;DHT22;13033;50.936;5.334;2024-01-15T07:54:16;2.60;99.90
25024;DHT22;13033;50.936;5.334;2024-01-15T07:57:00;2.70;99.90
25024;DHT22;13033;50.936;5.334;2024-01-15T07:59:28;2.70;99.90
25024;DHT22;13033;50.936;5.334;2024-01-15T08:01:53;2.90;99.90
25024;DHT22;13033;50.936;5.334;2024-01-15T08:04:19;2.80;99.90
25024;DHT22;13033;50.936;5.334;2024-01-15T08:06:46;2.80;99.90
25024;DHT22;13033;50.936;5.334;2024-01-15T08:09:11;2.70;99.90
25024;DHT22;13033;50.936;5.334;2024-01-15T08:11:41;2.70;99.90
25024;DHT22;13033;50.936;5.334;2024-01-15T08:14:08;2.70;99.90
25024;DHT22;13033;50.936;5.334;2024-01-15T08:16:35;2.80;99.90
25024;DHT22;13033;50.936;5.334;2024-01-15T08:19:00;2.80;99.90
25024;DHT22;13033;50.936;5.334;2024-01-15T08:21:26;2.80;99.90
25024;DHT22;13033;50.936;5.334;2024-01-15T08:24:04;2.90;99.90
25024;DHT22;13033;50.936;5.334;2024-01-15T08:26:30;2.80;99.90
25024;DHT22;13033;50.936;5.334;2024-01-15T08:28:56;2.90;99.90
25024;DHT22;13033;50.936;5.334;2024-01-15T08:31:21;2.90;99.90
25024;DHT22;13033;50.936;5.334;2024-01-15T08:33:47;3.00;99.90
25024;DHT22;13033;50.936;5.334;2024-01-15T08:36:13;3.00;99.90
25024;DHT22;13033;50.936;5.334;2024-01-15T08:38:39;3.00;99.90
25024;DHT22;13033;50.936;5.334;2024-01-15T08:41:05;3.00;99.90
25024;DHT22;13033;50.936;5.334;2024-01-15T08:43:30;3.00;99.90
25024;DHT22;13033;50.936;5.334;2024-01-15T08:45:56;3.00;99.90
25024;DHT22;13033;50.936;5.334;2024-01-15T08:48:23;3.00;99.90
25024;DHT22;13033;50.936;5.334;2024-01-15T08:50:48;3.00;99.90
25024;DHT22;13033;50.936;5.334;2024-01-15T08:53:14;2.90;99.90
25024;DHT22;13033;50.936;5.334;2024-01-15T08:55:40;2.90;99.90
25024;DHT22;13033;50.936;5.334;2024-01-15T08:58:08;2.90;99.90
25024;DHT22;13033;50.936;5.334;2024-01-15T09:00:34;2.90;99.90
25024;DHT22;13033;50.936;5.334;2024-01-15T09:02:59;2.80;99.90
25024;DHT22;13033;50.936;5.334;2024-01-15T09:05:25;2.80;99.90
25024;DHT22;13033;50.936;5.334;2024-01-15T09:07:51;2.90;99.90
25024;DHT22;13033;50.936;5.334;2024-01-15T09:10:18;2.80;99.90
25024;DHT22;13033;50.936;5.334;2024-01-15T09:12:44;2.70;99.90
25024;DHT22;13033;50.936;5.334;2024-01-15T09:15:09;2.70;99.90
25024;DHT22;13033;50.936;5.334;2024-01-15T09:17:35;2.70;99.90
25024;DHT22;13033;50.936;5.334;2024-01-15T09:20:01;2.70;99.90
25024;DHT22;13033;50.936;5.334;2024-01-15T09:22:27;2.70;99.90
25024;DHT22;13033;50.936;5.334;2024-01-15T09:24:52;2.70;99.90
25024;DHT22;13033;50.936;5.334;2024-01-15T09:27:18;2.90;99.90
25024;DHT22;13033;50.936;5.334;2024-01-15T09:29:44;3.00;99.90
25024;DHT22;13033;50.936;5.334;2024-01-15T09:32:11;3.00;99.90
25024;DHT22;13033;50.936;5.334;2024-01-15T09:34:38;3.00;99.90
25024;DHT22;13033;50.936;5.334;2024-01-15T09:37:03;2.90;99.90
25024;DHT22;13033;50.936;5.334;2024-01-15T09:39:29;2.90;99.90
25024;DHT22;13033;50.936;5.334;2024-01-15T09:41:56;2.80;99.90
25024;DHT22;13033;50.936;5.334;2024-01-15T09:44:23;2.70;99.90
25024;DHT22;13033;50.936;5.334;2024-01-15T09:46:49;2.80;99.90
25024;DHT22;13033;50.936;5.334;2024-01-15T09:49:18;2.80;99.90
25024;DHT22;13033;50.936;5.334;2024-01-15T09:51:44;3.00;99.90
25024;DHT22;13033;50.936;5.334;2024-01-15T09:54:10;3.00;99.90
25024;DHT22;13033;50.936;5.334;2024-01-15T09:56:39;3.10;99.90
25024;DHT22;13033;50.936;5.334;2024-01-15T09:59:05;3.10;99.90
25024;DHT22;13033;50.936;5.334;2024-01-15T10:01:36;3.20;99.90
25024;DHT22;13033;50.936;5.334;2024-01-15T10:04:02;3.20;99.90
25024;DHT22;13033;50.936;5.334;2024-01-15T10:06:28;3.30;99.90
25024;DHT22;13033;50.936;5.334;2024-01-15T10:08:54;3.30;99.90
25024;DHT22;13033;50.936;5.334;2024-01-15T10:11:22;3.30;99.90
25024;DHT22;13033;50.936;5.334;2024-01-15T10:13:47;3.20;99.90
25024;DHT22;13033;50.936;5.334;2024-01-15T10:16:17;3.30;99.90
25024;DHT22;13033;50.936;5.334;2024-01-15T10:18:43;3.30;99.90
25024;DHT22;13033;50.936;5.334;2024-01-15T10:21:08;3.40;99.90
25024;DHT22;13033;50.936;5.334;2024-01-15T10:23:34;3.40;99.90
25024;DHT22;13033;50.936;5.334;2024-01-15T10:26:02;3.40;99.90
25024;DHT22;13033;50.936;5.334;2024-01-15T10:28:28;3.50;99.90
25024;DHT22;13033;50.936;5.334;2024-01-15T10:30:57;3.50;99.90
25024;DHT22;13033;50.936;5.334;2024-01-15T10:33:24;3.40;99.90
25024;DHT22;13033;50.936;5.334;2024-01-15T10:35:57;3.40;99.90
25024;DHT22;13033;50.936;5.334;2024-01-15T10:38:24;3.50;99.90
25024;DHT22;13033;50.936;5.334;2024-01-15T10:40:54;3.60;99.90
25024;DHT22;13033;50.936;5.334;2024-01-15T10:43:21;3.60;99.90
25024;DHT22;13033;50.936;5.334;2024-01-15T10:45:48;3.50;99.90
25024;DHT22;13033;50.936;5.334;2024-01-15T10:48:15;3.40;99.90
25024;DHT22;13033;50.936;5.334;2024-01-15T10:50:41;3.40;99.90
25024;DHT22;13033;50.936;5.334;2024-01-15T10:53:08;3.40;99.90
25024;DHT22;13033;50.936;5.334;2024-01-15T10:55:36;3.50;99.90
25024;DHT22;13033;50.936;5.334;2024-01-15T10:58:03;3.70;99.90
25024;DHT22;13033;50.936;5.334;2024-01-15T11:00:29;3.80;99.90
25024;DHT22;13033;50.936;5.334;2024-01-15T11:02:55;3.90;99.90
25024;DHT22;13033;50.936;5.334;2024-01-15T11:05:22;4.00;99.90
25024;DHT22;13033;50.936;5.334;2024-01-15T11:07:55;4.20;99.90
25024;DHT22;13033;50.936;5.334;2024-01-15T11:13:09;4.40;99.90
25024;DHT22;13033;50.936;5.334;2024-01-15T11:18:27;4.60;99.90
25024;DHT22;13033;50.936;5.334;2024-01-15T11:23:55;4.60;99.90
25024;DHT22;13033;50.936;5.334;2024-01-15T11:26:45;4.30;99.90
25024;DHT22;13033;50.936;5.334;2024-01-15T11:29:30;4.30;99.90
25024;DHT22;13033;50.936;5.334;2024-01-15T11:31:58;4.20;99.90
25024;DHT22;13033;50.936;5.334;2024-01-15T11:34:55;4.20;99.90
25024;DHT22;13033;50.936;5.334;2024-01-15T11:37:26;4.20;99.90
25024;DHT22;13033;50.936;5.334;2024-01-15T11:39:53;4.10;99.90
25024;DHT22;13033;50.936;5.334;2024-01-15T11:42:20;3.90;99.90
25024;DHT22;13033;50.936;5.334;2024-01-15T11:44:46;3.40;99.90
25024;DHT22;13033;50.936;5.334;2024-01-15T11:47:13;3.10;99.90
25024;DHT22;13033;50.936;5.334;2024-01-15T11:50:01;2.90;99.90
25024;DHT22;13033;50.936;5.334;2024-01-15T11:52:33;2.90;99.90
25024;DHT22;13033;50.936;5.334;2024-01-15T11:57:46;2.80;99.90
25024;DHT22;13033;50.936;5.334;2024-01-15T12:00:13;2.60;99.90
25024;DHT22;13033;50.936;5.334;2024-01-15T12:02:40;2.50;99.90
25024;DHT22;13033;50.936;5.334;2024-01-15T12:05:10;2.50;99.90
25024;DHT22;13033;50.936;5.334;2024-01-15T12:07:39;2.50;99.90
25024;DHT22;13033;50.936;5.334;2024-01-15T12:10:11;2.50;99.90
25024;DHT22;13033;50.936;5.334;2024-01-15T12:12:42;2.50;99.90
25024;DHT22;13033;50.936;5.334;2024-01-15T12:15:12;2.40;99.90
25024;DHT22;13033;50.936;5.334;2024-01-15T12:17:38;2.40;99.90
25024;DHT22;13033;50.936;5.334;2024-01-15T12:20:05;2.40;99.90
25024;DHT22;13033;50.936;5.334;2024-01-15T12:22:31;2.40;99.90
25024;DHT22;13033;50.936;5.334;2024-01-15T12:24:57;2.40;99.90
25024;DHT22;13033;50.936;5.334;2024-01-15T12:27:23;2.50;99.90
25024;DHT22;13033;50.936;5.334;2024-01-15T12:29:49;2.30;99.90
25024;DHT22;13033;50.936;5.334;2024-01-15T12:32:15;2.30;99.90
25024;DHT22;13033;50.936;5.334;2024-01-15T12:34:41;2.10;99.90
25024;DHT22;13033;50.936;5.334;2024-01-15T12:37:09;2.10;99.90
25024;DHT22;13033;50.936;5.334;2024-01-15T12:39:37;2.10;99.90
25024;DHT22;13033;50.936;5.334;2024-01-15T12:42:03;2.20;99.90
25024;DHT22;13033;50.936;5.334;2024-01-15T12:44:31;2.30;99.90
25024;DHT22;13033;50.936;5.334;2024-01-15T12:46:57;2.40;99.90
25024;DHT22;13033;50.936;5.334;2024-01-15T12:49:24;2.40;99.90
25024;DHT22;13033;50.936;5.334;2024-01-15T12:51:53;2.60;99.90
25024;DHT22;13033;50.936;5.334;2024-01-15T12:54:20;2.50;99.90
25024;DHT22;13033;50.936;5.334;2024-01-15T12:56:46;2.60;99.90
25024;DHT22;13033;50.936;5.334;2024-01-15T12:59:11;2.60;99.90
25024;DHT22;13033;50.936;5.334;2024-01-15T13:01:37;2.60;99.90
25024;DHT22;13033;50.936;5.334;2024-01-15T13:04:03;2.70;99.90
25024;DHT22;13033;50.936;5.334;2024-01-15T13:06:29;2.70;99.90
25024;DHT22;13033;50.936;5.334;2024-01-15T13:08:54;2.60;99.90
25024;DHT22;13033;50.936;5.334;2024-01-15T13:11:20;2.60;99.90
25024;DHT22;13033;50.936;5.334;2024-01-15T13:13:46;2.60;99.90
25024;DHT22;13033;50.936;5.334;2024-01-15T13:16:12;2.50;99.90
25024;DHT22;13033;50.936;5.334;2024-01-15T13:18:38;2.40;99.90
25024;DHT22;13033;50.936;5.334;2024-01-15T13:21:04;2.50;99.90
25024;DHT22;13033;50.936;5.334;2024-01-15T13:23:30;2.50;99.90
25024;DHT22;13033;50.936;5.334;2024-01-15T13:25:55;2.50;99.90
25024;DHT22;13033;50.936;5.334;2024-01-15T13:28:21;2.40;99.90
25024;DHT22;13033;50.936;5.334;2024-01-15T13:30:46;2.50;99.90
25024;DHT22;13033;50.936;5.334;2024-01-15T13:33:13;2.50;99.90
25024;DHT22;13033;50.936;5.334;2024-01-15T13:35:38;2.60;99.90
25024;DHT22;13033;50.936;5.334;2024-01-15T13:38:04;2.70;99.90
25024;DHT22;13033;50.936;5.334;2024-01-15T13:40:30;2.70;99.90
25024;DHT22;13033;50.936;5.334;2024-01-15T13:42:56;2.70;99.90
25024;DHT22;13033;50.936;5.334;2024-01-15T13:45:21;2.60;99.90
25024;DHT22;13033;50.936;5.334;2024-01-15T13:47:49;2.70;99.90
25024;DHT22;13033;50.936;5.334;2024-01-15T13:50:15;2.80;99.90
25024;DHT22;13033;50.936;5.334;2024-01-15T13:52:41;2.90;99.90
25024;DHT22;13033;50.936;5.334;2024-01-15T13:55:07;2.90;99.90
25024;DHT22;13033;50.936;5.334;2024-01-15T13:57:34;2.90;99.90
25024;DHT22;13033;50.936;5.334;2024-01-15T13:59:59;2.90;99.90
25024;DHT22;13033;50.936;5.334;2024-01-15T14:02:25;2.80;99.90
25024;DHT22;13033;50.936;5.334;2024-01-15T14:04:51;2.70;99.90
25024;DHT22;13033;50.936;5.334;2024-01-15T14:07:17;2.70;99.90
25024;DHT22;13033;50.936;5.334;2024-01-15T14:09:42;2.70;99.90
25024;DHT22;13033;50.936;5.334;2024-01-15T14:12:08;2.60;99.90
25024;DHT22;13033;50.936;5.334;2024-01-15T14:14:33;2.60;99.90
25024;DHT22;13033;50.936;5.334;2024-01-15T14:16:59;2.70;99.90
25024;DHT22;13033;50.936;5.334;2024-01-15T14:19:25;2.80;99.90
25024;DHT22;13033;50.936;5.334;2024-01-15T14:21:51;2.70;99.90
25024;DHT22;13033;50.936;5.334;2024-01-15T14:24:16;2.70;99.90
25024;DHT22;13033;50.936;5.334;2024-01-15T14:26:42;2.70;99.90
25024;DHT22;13033;50.936;5.334;2024-01-15T14:29:08;2.60;99.90
25024;DHT22;13033;50.936;5.334;2024-01-15T14:31:34;2.60;99.90
25024;DHT22;13033;50.936;5.334;2024-01-15T14:34:00;2.60;99.90
25024;DHT22;13033;50.936;5.334;2024-01-15T14:36:27;2.50;99.90
25024;DHT22;13033;50.936;5.334;2024-01-15T14:38:53;2.40;99.90
25024;DHT22;13033;50.936;5.334;2024-01-15T14:41:19;2.40;99.90
25024;DHT22;13033;50.936;5.334;2024-01-15T14:43:45;2.40;99.90
25024;DHT22;13033;50.936;5.334;2024-01-15T14:46:10;2.40;99.90
25024;DHT22;13033;50.936;5.334;2024-01-15T14:48:36;2.40;99.90
25024;DHT22;13033;50.936;5.334;2024-01-15T14:51:02;2.40;99.90
25024;DHT22;13033;50.936;5.334;2024-01-15T14:53:28;2.40;99.90
25024;DHT22;13033;50.936;5.334;2024-01-15T14:55:54;2.40;99.90
25024;DHT22;13033;50.936;5.334;2024-01-15T14:58:20;2.40;99.90
25024;DHT22;13033;50.936;5.334;2024-01-15T15:00:46;2.40;99.90
25024;DHT22;13033;50.936;5.334;2024-01-15T15:03:11;2.50;99.90
25024;DHT22;13033;50.936;5.334;2024-01-15T15:05:39;2.60;99.90
25024;DHT22;13033;50.936;5.334;2024-01-15T15:08:06;2.70;99.90
25024;DHT22;13033;50.936;5.334;2024-01-15T15:10:37;2.80;99.90
25024;DHT22;13033;50.936;5.334;2024-01-15T15:13:03;2.80;99.90
25024;DHT22;13033;50.936;5.334;2024-01-15T15:15:29;2.70;99.90
25024;DHT22;13033;50.936;5.334;2024-01-15T15:17:55;2.70;99.90
25024;DHT22;13033;50.936;5.334;2024-01-15T15:20:20;2.80;99.90
25024;DHT22;13033;50.936;5.334;2024-01-15T15:22:46;2.80;99.90
25024;DHT22;13033;50.936;5.334;2024-01-15T15:25:12;2.80;99.90
25024;DHT22;13033;50.936;5.334;2024-01-15T15:27:38;2.70;99.90
25024;DHT22;13033;50.936;5.334;2024-01-15T15:30:06;2.60;99.90
25024;DHT22;13033;50.936;5.334;2024-01-15T15:32:32;2.70;99.90
25024;DHT22;13033;50.936;5.334;2024-01-15T15:34:58;2.50;99.90
25024;DHT22;13033;50.936;5.334;2024-01-15T15:37:24;2.40;99.90
25024;DHT22;13033;50.936;5.334;2024-01-15T15:39:49;2.40;99.90
25024;DHT22;13033;50.936;5.334;2024-01-15T15:42:15;2.40;99.90
25024;DHT22;13033;50.936;5.334;2024-01-15T15:44:41;2.30;99.90
25024;DHT22;13033;50.936;5.334;2024-01-15T15:47:12;2.30;99.90
25024;DHT22;13033;50.936;5.334;2024-01-15T15:49:40;2.30;99.90
25024;DHT22;13033;50.936;5.334;2024-01-15T15:52:06;2.30;99.90